Abbott, New Mexico
Current Conditions -  °F | °C
As of 4:53 AM on Tuesday 27 Jan 2015 (Local Time) from KRTN Reporting Station
Clear Clear  
Wind Chill: 24°   Ceiling: Unl
Heat Index: 31°   Visibility: 10mi
Dew Point: 24°   Wind: 7mph
Humidity: 76%   Direction: 50°NE
Pressure: 30.3"   Gusts: NA
Location:  36.3883°N, 104.381°W
Report Text: KRTN 271153Z AUTO 05006KT 10SM CLR M01/M04 A3030 RMK AO2 SLP241 T10061044 11006 21028 58008
Loading
Personal Weather Stations






























Interactive Weather Map New forecast layout! Learn more

10-Day Weather Forecast

Advertisements
Track Severe Weather on mobile